sensor_id;sensor_type;location;lat;lon;timestamp;P1;durP1;ratioP1;P2;durP2;ratioP2
55670;SDS011;41551;47.500;8.408;2023-04-03T00:01:25;5.13;;;2.97;;
55670;SDS011;41551;47.500;8.408;2023-04-03T00:03:51;4.30;;;3.10;;
55670;SDS011;41551;47.500;8.408;2023-04-03T00:06:19;4.53;;;3.28;;
55670;SDS011;41551;47.500;8.408;2023-04-03T00:08:46;6.07;;;3.22;;
55670;SDS011;41551;47.500;8.408;2023-04-03T00:11:13;5.10;;;3.10;;
55670;SDS011;41551;47.500;8.408;2023-04-03T00:13:40;5.90;;;3.47;;
55670;SDS011;41551;47.500;8.408;2023-04-03T00:16:07;6.28;;;2.95;;
55670;SDS011;41551;47.500;8.408;2023-04-03T00:18:35;3.63;;;2.72;;
55670;SDS011;41551;47.500;8.408;2023-04-03T00:21:02;5.40;;;3.33;;
55670;SDS011;41551;47.500;8.408;2023-04-03T00:23:30;6.45;;;3.85;;
55670;SDS011;41551;47.500;8.408;2023-04-03T00:25:57;5.03;;;2.83;;
55670;SDS011;41551;47.500;8.408;2023-04-03T00:28:23;5.68;;;3.58;;
55670;SDS011;41551;47.500;8.408;2023-04-03T00:30:50;5.63;;;3.42;;
55670;SDS011;41551;47.500;8.408;2023-04-03T00:33:17;3.83;;;2.55;;
55670;SDS011;41551;47.500;8.408;2023-04-03T00:35:46;4.55;;;3.17;;
55670;SDS011;41551;47.500;8.408;2023-04-03T00:38:13;5.55;;;3.50;;
55670;SDS011;41551;47.500;8.408;2023-04-03T00:40:43;3.95;;;3.20;;
55670;SDS011;41551;47.500;8.408;2023-04-03T00:43:12;4.80;;;3.35;;
55670;SDS011;41551;47.500;8.408;2023-04-03T00:45:42;5.15;;;3.33;;
55670;SDS011;41551;47.500;8.408;2023-04-03T00:48:11;4.35;;;2.78;;
55670;SDS011;41551;47.500;8.408;2023-04-03T00:50:42;5.07;;;3.20;;
55670;SDS011;41551;47.500;8.408;2023-04-03T00:53:10;4.32;;;2.85;;
55670;SDS011;41551;47.500;8.408;2023-04-03T00:55:42;4.00;;;3.20;;
55670;SDS011;41551;47.500;8.408;2023-04-03T00:58:09;4.05;;;2.70;;
55670;SDS011;41551;47.500;8.408;2023-04-03T01:00:37;2.95;;;2.38;;
55670;SDS011;41551;47.500;8.408;2023-04-03T01:03:09;4.15;;;2.70;;
55670;SDS011;41551;47.500;8.408;2023-04-03T01:05:35;3.88;;;2.58;;
55670;SDS011;41551;47.500;8.408;2023-04-03T01:08:02;3.60;;;2.50;;
55670;SDS011;41551;47.500;8.408;2023-04-03T01:10:30;5.05;;;3.60;;
55670;SDS011;41551;47.500;8.408;2023-04-03T01:12:58;5.13;;;3.20;;
55670;SDS011;41551;47.500;8.408;2023-04-03T01:15:26;4.88;;;3.10;;
55670;SDS011;41551;47.500;8.408;2023-04-03T01:17:55;6.25;;;4.07;;
55670;SDS011;41551;47.500;8.408;2023-04-03T01:23:35;5.63;;;3.85;;
55670;SDS011;41551;47.500;8.408;2023-04-03T01:26:11;4.90;;;3.47;;
55670;SDS011;41551;47.500;8.408;2023-04-03T01:28:39;7.50;;;4.32;;
55670;SDS011;41551;47.500;8.408;2023-04-03T01:31:09;5.65;;;3.97;;
55670;SDS011;41551;47.500;8.408;2023-04-03T01:33:42;5.93;;;4.60;;
55670;SDS011;41551;47.500;8.408;2023-04-03T01:36:14;6.05;;;4.55;;
55670;SDS011;41551;47.500;8.408;2023-04-03T01:38:43;6.78;;;4.50;;
55670;SDS011;41551;47.500;8.408;2023-04-03T01:41:10;8.02;;;4.43;;
55670;SDS011;41551;47.500;8.408;2023-04-03T01:43:37;8.23;;;4.90;;
55670;SDS011;41551;47.500;8.408;2023-04-03T01:46:03;8.20;;;5.20;;
55670;SDS011;41551;47.500;8.408;2023-04-03T01:48:30;8.25;;;4.70;;
55670;SDS011;41551;47.500;8.408;2023-04-03T01:50:58;7.07;;;4.78;;
55670;SDS011;41551;47.500;8.408;2023-04-03T01:53:24;5.90;;;4.72;;
55670;SDS011;41551;47.500;8.408;2023-04-03T01:55:51;7.10;;;5.10;;
55670;SDS011;41551;47.500;8.408;2023-04-03T01:58:18;7.18;;;4.85;;
55670;SDS011;41551;47.500;8.408;2023-04-03T02:00:44;8.10;;;5.05;;
55670;SDS011;41551;47.500;8.408;2023-04-03T02:03:11;6.45;;;4.72;;
55670;SDS011;41551;47.500;8.408;2023-04-03T02:05:38;6.78;;;4.63;;
55670;SDS011;41551;47.500;8.408;2023-04-03T02:08:06;6.90;;;4.20;;
55670;SDS011;41551;47.500;8.408;2023-04-03T02:10:32;7.20;;;4.80;;
55670;SDS011;41551;47.500;8.408;2023-04-03T02:12:59;7.00;;;4.07;;
55670;SDS011;41551;47.500;8.408;2023-04-03T02:15:25;8.38;;;4.00;;
55670;SDS011;41551;47.500;8.408;2023-04-03T02:17:52;6.72;;;4.13;;
55670;SDS011;41551;47.500;8.408;2023-04-03T02:20:19;5.30;;;3.90;;
55670;SDS011;41551;47.500;8.408;2023-04-03T02:22:46;6.20;;;4.30;;
55670;SDS011;41551;47.500;8.408;2023-04-03T02:25:14;5.57;;;4.15;;
55670;SDS011;41551;47.500;8.408;2023-04-03T02:27:42;5.93;;;4.03;;
55670;SDS011;41551;47.500;8.408;2023-04-03T02:30:09;4.93;;;3.53;;
55670;SDS011;41551;47.500;8.408;2023-04-03T02:32:36;6.07;;;4.20;;
55670;SDS011;41551;47.500;8.408;2023-04-03T02:35:03;6.43;;;3.83;;
55670;SDS011;41551;47.500;8.408;2023-04-03T02:37:31;5.65;;;3.40;;
55670;SDS011;41551;47.500;8.408;2023-04-03T02:39:57;5.65;;;3.85;;
55670;SDS011;41551;47.500;8.408;2023-04-03T02:42:25;4.68;;;2.85;;
55670;SDS011;41551;47.500;8.408;2023-04-03T02:44:52;4.68;;;3.53;;
55670;SDS011;41551;47.500;8.408;2023-04-03T02:47:18;4.88;;;3.20;;
55670;SDS011;41551;47.500;8.408;2023-04-03T02:49:45;6.05;;;3.60;;
55670;SDS011;41551;47.500;8.408;2023-04-03T02:52:12;4.55;;;3.35;;
55670;SDS011;41551;47.500;8.408;2023-04-03T02:54:38;5.57;;;4.10;;
55670;SDS011;41551;47.500;8.408;2023-04-03T02:57:05;7.32;;;3.67;;
55670;SDS011;41551;47.500;8.408;2023-04-03T02:59:35;4.68;;;3.67;;
55670;SDS011;41551;47.500;8.408;2023-04-03T03:02:01;5.90;;;4.13;;
55670;SDS011;41551;47.500;8.408;2023-04-03T03:04:28;8.25;;;4.65;;
55670;SDS011;41551;47.500;8.408;2023-04-03T03:06:54;5.53;;;4.15;;
55670;SDS011;41551;47.500;8.408;2023-04-03T03:09:21;6.82;;;4.13;;
55670;SDS011;41551;47.500;8.408;2023-04-03T03:11:48;5.60;;;4.10;;
55670;SDS011;41551;47.500;8.408;2023-04-03T03:14:14;9.27;;;4.65;;
55670;SDS011;41551;47.500;8.408;2023-04-03T03:16:42;6.20;;;4.30;;
55670;SDS011;41551;47.500;8.408;2023-04-03T03:19:09;6.68;;;4.40;;
55670;SDS011;41551;47.500;8.408;2023-04-03T03:21:35;6.63;;;4.72;;
55670;SDS011;41551;47.500;8.408;2023-04-03T03:24:02;7.47;;;4.93;;
55670;SDS011;41551;47.500;8.408;2023-04-03T03:26:29;6.70;;;4.45;;
55670;SDS011;41551;47.500;8.408;2023-04-03T03:28:55;6.38;;;4.63;;
55670;SDS011;41551;47.500;8.408;2023-04-03T03:31:22;6.43;;;5.18;;
55670;SDS011;41551;47.500;8.408;2023-04-03T03:33:50;6.20;;;4.40;;
55670;SDS011;41551;47.500;8.408;2023-04-03T03:36:16;8.02;;;5.05;;
55670;SDS011;41551;47.500;8.408;2023-04-03T03:38:43;6.68;;;5.18;;
55670;SDS011;41551;47.500;8.408;2023-04-03T03:41:09;6.97;;;4.70;;
55670;SDS011;41551;47.500;8.408;2023-04-03T03:43:36;7.07;;;4.80;;
55670;SDS011;41551;47.500;8.408;2023-04-03T03:46:02;8.55;;;5.15;;
55670;SDS011;41551;47.500;8.408;2023-04-03T03:48:29;6.70;;;4.60;;
55670;SDS011;41551;47.500;8.408;2023-04-03T03:50:57;7.28;;;4.70;;
55670;SDS011;41551;47.500;8.408;2023-04-03T03:53:23;8.00;;;4.90;;
55670;SDS011;41551;47.500;8.408;2023-04-03T03:55:50;6.97;;;4.65;;
55670;SDS011;41551;47.500;8.408;2023-04-03T03:58:17;8.02;;;5.07;;
55670;SDS011;41551;47.500;8.408;2023-04-03T04:00:43;7.18;;;4.82;;
55670;SDS011;41551;47.500;8.408;2023-04-03T04:03:10;8.35;;;4.95;;
55670;SDS011;41551;47.500;8.408;2023-04-03T04:05:36;8.30;;;4.80;;
55670;SDS011;41551;47.500;8.408;2023-04-03T04:08:04;8.00;;;5.03;;
55670;SDS011;41551;47.500;8.408;2023-04-03T04:10:31;7.18;;;5.05;;
55670;SDS011;41551;47.500;8.408;2023-04-03T04:12:58;8.02;;;5.03;;
55670;SDS011;41551;47.500;8.408;2023-04-03T04:15:24;6.05;;;4.63;;
55670;SDS011;41551;47.500;8.408;2023-04-03T04:17:51;6.28;;;4.75;;
55670;SDS011;41551;47.500;8.408;2023-04-03T04:20:19;6.45;;;3.90;;
55670;SDS011;41551;47.500;8.408;2023-04-03T04:22:45;7.72;;;4.60;;
55670;SDS011;41551;47.500;8.408;2023-04-03T04:25:13;7.80;;;4.82;;
55670;SDS011;41551;47.500;8.408;2023-04-03T04:27:40;7.75;;;3.95;;
55670;SDS011;41551;47.500;8.408;2023-04-03T04:30:07;6.13;;;3.95;;
55670;SDS011;41551;47.500;8.408;2023-04-03T04:32:34;7.68;;;4.82;;
55670;SDS011;41551;47.500;8.408;2023-04-03T04:35:00;6.70;;;4.68;;
55670;SDS011;41551;47.500;8.408;2023-04-03T04:37:27;5.95;;;4.30;;
55670;SDS011;41551;47.500;8.408;2023-04-03T04:39:53;6.82;;;3.83;;
55670;SDS011;41551;47.500;8.408;2023-04-03T04:42:21;5.72;;;4.25;;
55670;SDS011;41551;47.500;8.408;2023-04-03T04:44:48;8.02;;;4.97;;
55670;SDS011;41551;47.500;8.408;2023-04-03T04:47:15;6.25;;;4.40;;
55670;SDS011;41551;47.500;8.408;2023-04-03T04:49:41;7.20;;;4.65;;
55670;SDS011;41551;47.500;8.408;2023-04-03T04:52:08;7.18;;;4.72;;
55670;SDS011;41551;47.500;8.408;2023-04-03T04:54:35;7.70;;;4.72;;
55670;SDS011;41551;47.500;8.408;2023-04-03T04:57:01;7.88;;;4.75;;
55670;SDS011;41551;47.500;8.408;2023-04-03T04:59:29;6.00;;;3.90;;
55670;SDS011;41551;47.500;8.408;2023-04-03T05:01:56;6.35;;;4.35;;
55670;SDS011;41551;47.500;8.408;2023-04-03T05:04:22;6.57;;;4.32;;
55670;SDS011;41551;47.500;8.408;2023-04-03T05:06:49;6.82;;;4.35;;
55670;SDS011;41551;47.500;8.408;2023-04-03T05:09:15;7.80;;;4.68;;
55670;SDS011;41551;47.500;8.408;2023-04-03T05:11:43;7.68;;;4.43;;
55670;SDS011;41551;47.500;8.408;2023-04-03T05:14:10;9.07;;;4.57;;
55670;SDS011;41551;47.500;8.408;2023-04-03T05:16:37;6.22;;;3.97;;
55670;SDS011;41551;47.500;8.408;2023-04-03T05:19:04;6.80;;;4.50;;
55670;SDS011;41551;47.500;8.408;2023-04-03T05:21:31;6.68;;;4.70;;
55670;SDS011;41551;47.500;8.408;2023-04-03T05:23:58;6.63;;;4.80;;
55670;SDS011;41551;47.500;8.408;2023-04-03T05:26:27;6.72;;;4.85;;
55670;SDS011;41551;47.500;8.408;2023-04-03T05:28:54;6.75;;;4.25;;
55670;SDS011;41551;47.500;8.408;2023-04-03T05:31:20;8.63;;;3.95;;
55670;SDS011;41551;47.500;8.408;2023-04-03T05:33:48;6.35;;;4.43;;
55670;SDS011;41551;47.500;8.408;2023-04-03T05:36:15;5.95;;;3.80;;
55670;SDS011;41551;47.500;8.408;2023-04-03T05:38:42;6.60;;;4.25;;
55670;SDS011;41551;47.500;8.408;2023-04-03T05:41:09;6.10;;;4.35;;
55670;SDS011;41551;47.500;8.408;2023-04-03T05:43:35;6.07;;;3.88;;
55670;SDS011;41551;47.500;8.408;2023-04-03T05:46:03;4.78;;;4.07;;
55670;SDS011;41551;47.500;8.408;2023-04-03T05:48:33;6.07;;;4.10;;
55670;SDS011;41551;47.500;8.408;2023-04-03T05:51:01;5.22;;;3.60;;
55670;SDS011;41551;47.500;8.408;2023-04-03T05:53:28;4.68;;;3.80;;
55670;SDS011;41551;47.500;8.408;2023-04-03T05:55:57;4.88;;;3.03;;
55670;SDS011;41551;47.500;8.408;2023-04-03T05:58:23;5.18;;;2.95;;
55670;SDS011;41551;47.500;8.408;2023-04-03T06:00:50;4.68;;;3.20;;
55670;SDS011;41551;47.500;8.408;2023-04-03T06:03:17;5.90;;;3.47;;
55670;SDS011;41551;47.500;8.408;2023-04-03T06:05:43;4.93;;;3.30;;
55670;SDS011;41551;47.500;8.408;2023-04-03T06:08:12;5.15;;;2.60;;
55670;SDS011;41551;47.500;8.408;2023-04-03T06:10:39;4.55;;;3.40;;
55670;SDS011;41551;47.500;8.408;2023-04-03T06:13:06;4.20;;;3.03;;
55670;SDS011;41551;47.500;8.408;2023-04-03T06:15:33;4.45;;;3.10;;
55670;SDS011;41551;47.500;8.408;2023-04-03T06:17:59;4.65;;;2.90;;
55670;SDS011;41551;47.500;8.408;2023-04-03T06:20:26;4.95;;;3.30;;
55670;SDS011;41551;47.500;8.408;2023-04-03T06:22:53;3.72;;;2.80;;
55670;SDS011;41551;47.500;8.408;2023-04-03T06:25:20;3.67;;;2.90;;
55670;SDS011;41551;47.500;8.408;2023-04-03T06:27:47;5.22;;;2.90;;
55670;SDS011;41551;47.500;8.408;2023-04-03T06:30:14;4.18;;;2.50;;
55670;SDS011;41551;47.500;8.408;2023-04-03T06:32:40;6.68;;;3.10;;
55670;SDS011;41551;47.500;8.408;2023-04-03T06:35:08;3.85;;;2.90;;
55670;SDS011;41551;47.500;8.408;2023-04-03T06:37:35;4.32;;;2.80;;
55670;SDS011;41551;47.500;8.408;2023-04-03T06:40:02;4.45;;;2.67;;
55670;SDS011;41551;47.500;8.408;2023-04-03T06:42:30;5.25;;;3.15;;
55670;SDS011;41551;47.500;8.408;2023-04-03T06:44:57;4.47;;;2.90;;
55670;SDS011;41551;47.500;8.408;2023-04-03T06:47:24;4.00;;;2.80;;
55670;SDS011;41551;47.500;8.408;2023-04-03T06:49:50;5.50;;;3.03;;
55670;SDS011;41551;47.500;8.408;2023-04-03T06:52:17;4.95;;;3.00;;
55670;SDS011;41551;47.500;8.408;2023-04-03T06:54:43;4.18;;;2.92;;
55670;SDS011;41551;47.500;8.408;2023-04-03T06:57:10;5.50;;;3.00;;
55670;SDS011;41551;47.500;8.408;2023-04-03T06:59:38;4.97;;;2.67;;
55670;SDS011;41551;47.500;8.408;2023-04-03T07:02:05;6.13;;;2.55;;
55670;SDS011;41551;47.500;8.408;2023-04-03T07:04:32;5.00;;;3.25;;
55670;SDS011;41551;47.500;8.408;2023-04-03T07:06:58;3.30;;;2.50;;
55670;SDS011;41551;47.500;8.408;2023-04-03T07:09:25;4.32;;;2.95;;
55670;SDS011;41551;47.500;8.408;2023-04-03T07:11:51;3.70;;;2.88;;
55670;SDS011;41551;47.500;8.408;2023-04-03T07:14:18;2.92;;;2.30;;
55670;SDS011;41551;47.500;8.408;2023-04-03T07:16:47;4.30;;;2.75;;
55670;SDS011;41551;47.500;8.408;2023-04-03T07:19:14;5.30;;;3.00;;
55670;SDS011;41551;47.500;8.408;2023-04-03T07:21:42;5.25;;;2.58;;
55670;SDS011;41551;47.500;8.408;2023-04-03T07:24:09;3.10;;;2.50;;
55670;SDS011;41551;47.500;8.408;2023-04-03T07:26:36;4.82;;;2.08;;
55670;SDS011;41551;47.500;8.408;2023-04-03T07:29:02;3.70;;;2.63;;
55670;SDS011;41551;47.500;8.408;2023-04-03T07:31:29;4.78;;;3.13;;
55670;SDS011;41551;47.500;8.408;2023-04-03T07:33:57;3.72;;;2.20;;
55670;SDS011;41551;47.500;8.408;2023-04-03T07:36:24;2.40;;;2.10;;
55670;SDS011;41551;47.500;8.408;2023-04-03T07:38:51;4.00;;;2.60;;
55670;SDS011;41551;47.500;8.408;2023-04-03T07:41:18;3.05;;;2.13;;
55670;SDS011;41551;47.500;8.408;2023-04-03T07:43:46;3.05;;;1.90;;
55670;SDS011;41551;47.500;8.408;2023-04-03T07:46:14;2.67;;;2.20;;
55670;SDS011;41551;47.500;8.408;2023-04-03T07:48:42;4.28;;;2.00;;
55670;SDS011;41551;47.500;8.408;2023-04-03T07:51:10;2.90;;;2.08;;
55670;SDS011;41551;47.500;8.408;2023-04-03T07:53:36;2.63;;;2.00;;
55670;SDS011;41551;47.500;8.408;2023-04-03T07:56:03;3.03;;;2.30;;
55670;SDS011;41551;47.500;8.408;2023-04-03T07:58:30;3.75;;;2.33;;
55670;SDS011;41551;47.500;8.408;2023-04-03T08:00:57;2.83;;;2.30;;
55670;SDS011;41551;47.500;8.408;2023-04-03T08:03:26;3.33;;;2.10;;
55670;SDS011;41551;47.500;8.408;2023-04-03T08:05:53;4.60;;;2.28;;
55670;SDS011;41551;47.500;8.408;2023-04-03T08:08:22;2.85;;;2.00;;
55670;SDS011;41551;47.500;8.408;2023-04-03T08:10:49;3.15;;;2.20;;
55670;SDS011;41551;47.500;8.408;2023-04-03T08:13:16;2.70;;;2.22;;
55670;SDS011;41551;47.500;8.408;2023-04-03T08:15:43;2.88;;;2.30;;
55670;SDS011;41551;47.500;8.408;2023-04-03T08:18:10;3.03;;;2.20;;
55670;SDS011;41551;47.500;8.408;2023-04-03T08:20:37;4.57;;;2.33;;
55670;SDS011;41551;47.500;8.408;2023-04-03T08:23:04;4.78;;;2.78;;
55670;SDS011;41551;47.500;8.408;2023-04-03T08:25:33;3.13;;;2.47;;
55670;SDS011;41551;47.500;8.408;2023-04-03T08:27:59;2.58;;;2.20;;
55670;SDS011;41551;47.500;8.408;2023-04-03T08:30:27;2.78;;;2.15;;
55670;SDS011;41551;47.500;8.408;2023-04-03T08:32:53;3.03;;;2.22;;
55670;SDS011;41551;47.500;8.408;2023-04-03T08:35:20;3.22;;;2.20;;
55670;SDS011;41551;47.500;8.408;2023-04-03T08:37:47;4.28;;;2.15;;
55670;SDS011;41551;47.500;8.408;2023-04-03T08:40:14;5.07;;;2.45;;
55670;SDS011;41551;47.500;8.408;2023-04-03T08:42:46;4.35;;;2.38;;
55670;SDS011;41551;47.500;8.408;2023-04-03T08:45:20;4.85;;;2.20;;
55670;SDS011;41551;47.500;8.408;2023-04-03T08:47:55;2.80;;;2.30;;
55670;SDS011;41551;47.500;8.408;2023-04-03T08:50:28;2.13;;;1.92;;
55670;SDS011;41551;47.500;8.408;2023-04-03T08:52:59;2.83;;;2.15;;
55670;SDS011;41551;47.500;8.408;2023-04-03T08:55:31;4.38;;;2.30;;
55670;SDS011;41551;47.500;8.408;2023-04-03T08:58:02;2.30;;;1.90;;
55670;SDS011;41551;47.500;8.408;2023-04-03T09:00:31;3.47;;;2.40;;
55670;SDS011;41551;47.500;8.408;2023-04-03T09:03:04;3.17;;;2.22;;
55670;SDS011;41551;47.500;8.408;2023-04-03T09:05:35;3.13;;;2.20;;
55670;SDS011;41551;47.500;8.408;2023-04-03T09:08:12;2.90;;;2.40;;
55670;SDS011;41551;47.500;8.408;2023-04-03T09:10:46;2.97;;;2.40;;
55670;SDS011;41551;47.500;8.408;2023-04-03T09:13:17;2.50;;;2.00;;
55670;SDS011;41551;47.500;8.408;2023-04-03T09:15:51;3.95;;;2.47;;
55670;SDS011;41551;47.500;8.408;2023-04-03T09:18:19;3.45;;;2.05;;
55670;SDS011;41551;47.500;8.408;2023-04-03T09:20:52;3.13;;;2.38;;
55670;SDS011;41551;47.500;8.408;2023-04-03T09:23:26;3.28;;;2.25;;
55670;SDS011;41551;47.500;8.408;2023-04-03T09:25:58;2.30;;;2.08;;
55670;SDS011;41551;47.500;8.408;2023-04-03T09:28:31;3.15;;;2.40;;
55670;SDS011;41551;47.500;8.408;2023-04-03T09:31:01;3.00;;;2.03;;
55670;SDS011;41551;47.500;8.408;2023-04-03T09:33:29;3.22;;;2.33;;
55670;SDS011;41551;47.500;8.408;2023-04-03T09:35:56;3.72;;;2.42;;
55670;SDS011;41551;47.500;8.408;2023-04-03T09:38:23;3.33;;;2.00;;
55670;SDS011;41551;47.500;8.408;2023-04-03T09:40:50;3.13;;;2.20;;
55670;SDS011;41551;47.500;8.408;2023-04-03T09:43:31;3.00;;;2.15;;
55670;SDS011;41551;47.500;8.408;2023-04-03T09:48:50;3.55;;;2.20;;
55670;SDS011;41551;47.500;8.408;2023-04-03T09:51:18;3.80;;;2.42;;
55670;SDS011;41551;47.500;8.408;2023-04-03T09:53:44;2.42;;;1.90;;
55670;SDS011;41551;47.500;8.408;2023-04-03T09:56:22;3.65;;;1.92;;
55670;SDS011;41551;47.500;8.408;2023-04-03T09:58:52;2.42;;;1.98;;
55670;SDS011;41551;47.500;8.408;2023-04-03T10:01:34;3.45;;;2.10;;
55670;SDS011;41551;47.500;8.408;2023-04-03T10:04:07;2.75;;;2.28;;
55670;SDS011;41551;47.500;8.408;2023-04-03T10:06:38;2.33;;;2.00;;
55670;SDS011;41551;47.500;8.408;2023-04-03T10:09:15;2.83;;;1.70;;
55670;SDS011;41551;47.500;8.408;2023-04-03T10:14:24;2.38;;;1.70;;
55670;SDS011;41551;47.500;8.408;2023-04-03T10:16:53;1.95;;;1.50;;
55670;SDS011;41551;47.500;8.408;2023-04-03T10:19:32;1.88;;;1.60;;
55670;SDS011;41551;47.500;8.408;2023-04-03T10:22:03;2.30;;;1.55;;
55670;SDS011;41551;47.500;8.408;2023-04-03T10:24:41;2.70;;;1.83;;
55670;SDS011;41551;47.500;8.408;2023-04-03T10:27:16;2.83;;;1.60;;
55670;SDS011;41551;47.500;8.408;2023-04-03T10:29:50;2.63;;;1.83;;
55670;SDS011;41551;47.500;8.408;2023-04-03T10:32:27;2.28;;;1.65;;
55670;SDS011;41551;47.500;8.408;2023-04-03T10:35:02;2.25;;;1.80;;
55670;SDS011;41551;47.500;8.408;2023-04-03T10:37:41;1.85;;;1.63;;
55670;SDS011;41551;47.500;8.408;2023-04-03T10:40:26;2.83;;;1.80;;
55670;SDS011;41551;47.500;8.408;2023-04-03T10:42:59;2.10;;;1.80;;
55670;SDS011;41551;47.500;8.408;2023-04-03T10:45:37;2.83;;;1.90;;
55670;SDS011;41551;47.500;8.408;2023-04-03T10:48:22;5.72;;;2.30;;
55670;SDS011;41551;47.500;8.408;2023-04-03T10:51:00;2.45;;;1.80;;
55670;SDS011;41551;47.500;8.408;2023-04-03T10:53:35;3.13;;;1.90;;
55670;SDS011;41551;47.500;8.408;2023-04-03T10:56:08;2.58;;;1.95;;
55670;SDS011;41551;47.500;8.408;2023-04-03T10:58:40;3.53;;;1.98;;
55670;SDS011;41551;47.500;8.408;2023-04-03T11:01:12;1.60;;;1.48;;
55670;SDS011;41551;47.500;8.408;2023-04-03T11:03:43;2.38;;;1.70;;
55670;SDS011;41551;47.500;8.408;2023-04-03T11:06:14;3.03;;;1.90;;
55670;SDS011;41551;47.500;8.408;2023-04-03T11:08:44;2.35;;;1.90;;
55670;SDS011;41551;47.500;8.408;2023-04-03T11:11:16;1.70;;;1.58;;
55670;SDS011;41551;47.500;8.408;2023-04-03T11:13:48;2.72;;;1.95;;
55670;SDS011;41551;47.500;8.408;2023-04-03T11:16:20;2.28;;;1.80;;
55670;SDS011;41551;47.500;8.408;2023-04-03T11:18:52;2.78;;;1.90;;
55670;SDS011;41551;47.500;8.408;2023-04-03T11:21:24;2.78;;;1.70;;
55670;SDS011;41551;47.500;8.408;2023-04-03T11:23:56;3.00;;;1.98;;
55670;SDS011;41551;47.500;8.408;2023-04-03T11:26:24;2.20;;;1.88;;
55670;SDS011;41551;47.500;8.408;2023-04-03T11:28:56;2.45;;;1.83;;
55670;SDS011;41551;47.500;8.408;2023-04-03T11:31:36;3.25;;;2.08;;
55670;SDS011;41551;47.500;8.408;2023-04-03T11:34:14;5.20;;;2.20;;
55670;SDS011;41551;47.500;8.408;2023-04-03T11:36:54;3.22;;;2.20;;
55670;SDS011;41551;47.500;8.408;2023-04-03T11:39:25;2.45;;;2.00;;
55670;SDS011;41551;47.500;8.408;2023-04-03T11:41:54;2.38;;;1.77;;
55670;SDS011;41551;47.500;8.408;2023-04-03T11:44:35;2.20;;;1.88;;
55670;SDS011;41551;47.500;8.408;2023-04-03T11:47:05;2.80;;;2.22;;
55670;SDS011;41551;47.500;8.408;2023-04-03T11:49:52;3.28;;;1.90;;
55670;SDS011;41551;47.500;8.408;2023-04-03T11:58:13;3.67;;;2.00;;
55670;SDS011;41551;47.500;8.408;2023-04-03T12:00:51;3.40;;;2.30;;
55670;SDS011;41551;47.500;8.408;2023-04-03T12:12:55;3.25;;;1.80;;
55670;SDS011;41551;47.500;8.408;2023-04-03T12:21:11;3.55;;;2.20;;
55670;SDS011;41551;47.500;8.408;2023-04-03T12:26:26;2.97;;;2.20;;
55670;SDS011;41551;47.500;8.408;2023-04-03T12:28:56;3.40;;;2.00;;
55670;SDS011;41551;47.500;8.408;2023-04-03T12:31:24;2.47;;;1.70;;
55670;SDS011;41551;47.500;8.408;2023-04-03T12:34:05;2.88;;;1.83;;
55670;SDS011;41551;47.500;8.408;2023-04-03T12:36:45;2.55;;;2.20;;
55670;SDS011;41551;47.500;8.408;2023-04-03T12:39:25;4.03;;;1.80;;
55670;SDS011;41551;47.500;8.408;2023-04-03T12:42:12;2.70;;;2.03;;
55670;SDS011;41551;47.500;8.408;2023-04-03T12:44:51;1.95;;;1.60;;
55670;SDS011;41551;47.500;8.408;2023-04-03T12:47:27;2.67;;;2.15;;
55670;SDS011;41551;47.500;8.408;2023-04-03T12:49:57;3.25;;;2.08;;
55670;SDS011;41551;47.500;8.408;2023-04-03T12:52:30;2.30;;;1.85;;
55670;SDS011;41551;47.500;8.408;2023-04-03T12:55:01;2.75;;;1.95;;
55670;SDS011;41551;47.500;8.408;2023-04-03T12:57:36;2.28;;;1.80;;
55670;SDS011;41551;47.500;8.408;2023-04-03T13:00:18;1.70;;;1.60;;
55670;SDS011;41551;47.500;8.408;2023-04-03T13:02:46;3.13;;;1.70;;
55670;SDS011;41551;47.500;8.408;2023-04-03T13:05:15;2.03;;;1.83;;
55670;SDS011;41551;47.500;8.408;2023-04-03T13:07:44;1.73;;;1.63;;
55670;SDS011;41551;47.500;8.408;2023-04-03T13:10:15;1.98;;;1.58;;
55670;SDS011;41551;47.500;8.408;2023-04-03T13:12:47;2.75;;;1.77;;
55670;SDS011;41551;47.500;8.408;2023-04-03T13:15:16;2.83;;;1.50;;
55670;SDS011;41551;47.500;8.408;2023-04-03T13:17:44;2.20;;;1.85;;
55670;SDS011;41551;47.500;8.408;2023-04-03T13:20:14;2.50;;;1.80;;
55670;SDS011;41551;47.500;8.408;2023-04-03T13:22:47;1.88;;;1.70;;
55670;SDS011;41551;47.500;8.408;2023-04-03T13:25:18;1.80;;;1.60;;
55670;SDS011;41551;47.500;8.408;2023-04-03T13:27:48;2.70;;;1.90;;
55670;SDS011;41551;47.500;8.408;2023-04-03T13:30:19;2.08;;;1.85;;
55670;SDS011;41551;47.500;8.408;2023-04-03T13:32:47;2.78;;;2.03;;
55670;SDS011;41551;47.500;8.408;2023-04-03T13:35:24;2.47;;;2.00;;
55670;SDS011;41551;47.500;8.408;2023-04-03T13:37:54;5.03;;;2.15;;
55670;SDS011;41551;47.500;8.408;2023-04-03T13:40:22;2.13;;;1.92;;
55670;SDS011;41551;47.500;8.408;2023-04-03T13:42:59;2.08;;;1.88;;
55670;SDS011;41551;47.500;8.408;2023-04-03T13:45:27;4.60;;;2.00;;
55670;SDS011;41551;47.500;8.408;2023-04-03T13:48:06;2.55;;;2.10;;
55670;SDS011;41551;47.500;8.408;2023-04-03T13:50:49;2.45;;;2.00;;
55670;SDS011;41551;47.500;8.408;2023-04-03T13:53:18;4.53;;;2.50;;
55670;SDS011;41551;47.500;8.408;2023-04-03T13:55:54;2.63;;;2.20;;
55670;SDS011;41551;47.500;8.408;2023-04-03T13:58:24;2.70;;;2.08;;
55670;SDS011;41551;47.500;8.408;2023-04-03T14:00:53;2.83;;;1.95;;
55670;SDS011;41551;47.500;8.408;2023-04-03T14:03:22;3.95;;;2.17;;
55670;SDS011;41551;47.500;8.408;2023-04-03T14:05:51;4.40;;;2.13;;
55670;SDS011;41551;47.500;8.408;2023-04-03T14:08:18;3.72;;;2.28;;
55670;SDS011;41551;47.500;8.408;2023-04-03T14:10:46;2.55;;;2.00;;
55670;SDS011;41551;47.500;8.408;2023-04-03T14:13:15;2.53;;;1.90;;
55670;SDS011;41551;47.500;8.408;2023-04-03T14:15:45;4.03;;;2.00;;
55670;SDS011;41551;47.500;8.408;2023-04-03T14:18:13;5.07;;;2.20;;
55670;SDS011;41551;47.500;8.408;2023-04-03T14:20:41;3.35;;;2.08;;
55670;SDS011;41551;47.500;8.408;2023-04-03T14:23:09;2.35;;;1.95;;
55670;SDS011;41551;47.500;8.408;2023-04-03T14:25:35;2.55;;;1.98;;
55670;SDS011;41551;47.500;8.408;2023-04-03T14:28:06;4.95;;;2.28;;
55670;SDS011;41551;47.500;8.408;2023-04-03T14:30:40;2.22;;;1.83;;
55670;SDS011;41551;47.500;8.408;2023-04-03T14:33:10;2.28;;;1.80;;
55670;SDS011;41551;47.500;8.408;2023-04-03T14:35:39;4.53;;;2.22;;
55670;SDS011;41551;47.500;8.408;2023-04-03T14:38:10;4.13;;;2.60;;
55670;SDS011;41551;47.500;8.408;2023-04-03T14:40:46;3.30;;;2.50;;
55670;SDS011;41551;47.500;8.408;2023-04-03T14:43:12;4.82;;;3.05;;
55670;SDS011;41551;47.500;8.408;2023-04-03T14:45:40;4.55;;;2.40;;
55670;SDS011;41551;47.500;8.408;2023-04-03T14:48:10;4.35;;;2.50;;
55670;SDS011;41551;47.500;8.408;2023-04-03T14:50:43;3.42;;;2.22;;
55670;SDS011;41551;47.500;8.408;2023-04-03T14:53:09;3.47;;;1.95;;
55670;SDS011;41551;47.500;8.408;2023-04-03T14:55:39;4.78;;;2.42;;
55670;SDS011;41551;47.500;8.408;2023-04-03T14:58:08;3.35;;;2.30;;
55670;SDS011;41551;47.500;8.408;2023-04-03T15:00:38;2.30;;;1.95;;
55670;SDS011;41551;47.500;8.408;2023-04-03T15:03:05;2.75;;;1.83;;
55670;SDS011;41551;47.500;8.408;2023-04-03T15:05:33;2.17;;;1.60;;
55670;SDS011;41551;47.500;8.408;2023-04-03T15:08:02;2.22;;;1.95;;
55670;SDS011;41551;47.500;8.408;2023-04-03T15:10:30;2.67;;;2.00;;
55670;SDS011;41551;47.500;8.408;2023-04-03T15:12:57;2.42;;;2.17;;
55670;SDS011;41551;47.500;8.408;2023-04-03T15:15:27;4.00;;;2.97;;
55670;SDS011;41551;47.500;8.408;2023-04-03T15:17:56;4.78;;;2.47;;
55670;SDS011;41551;47.500;8.408;2023-04-03T15:20:24;4.00;;;2.40;;
55670;SDS011;41551;47.500;8.408;2023-04-03T15:22:54;2.83;;;2.22;;
55670;SDS011;41551;47.500;8.408;2023-04-03T15:25:22;3.58;;;2.17;;
55670;SDS011;41551;47.500;8.408;2023-04-03T15:27:48;3.97;;;2.22;;
55670;SDS011;41551;47.500;8.408;2023-04-03T15:30:16;4.32;;;2.13;;
55670;SDS011;41551;47.500;8.408;2023-04-03T15:32:44;3.55;;;2.08;;